createdAt,value
2023-07-16T08:01:14.077Z,500.00
2023-07-16T08:02:14.130Z,500.00
2023-07-16T08:03:14.293Z,500.00
2023-07-16T08:04:14.269Z,500.00
2023-07-16T08:05:14.290Z,500.00
2023-07-16T08:06:14.431Z,500.00
2023-07-16T08:07:14.287Z,400.00
2023-07-16T08:08:14.303Z,400.00
2023-07-16T08:09:14.350Z,400.00
2023-07-16T08:10:14.389Z,400.00
2023-07-16T08:11:14.404Z,400.00
2023-07-16T08:12:16.043Z,400.00
2023-07-16T08:13:14.486Z,400.00
2023-07-16T08:14:14.544Z,400.00
2023-07-16T08:15:14.574Z,400.00
2023-07-16T08:16:14.780Z,400.00
2023-07-16T08:17:14.740Z,400.00
2023-07-16T08:18:14.719Z,400.00
2023-07-16T08:19:14.704Z,400.00
2023-07-16T08:20:14.738Z,400.00
2023-07-16T08:21:14.817Z,400.00
2023-07-16T08:22:14.811Z,400.00
2023-07-16T08:23:14.911Z,400.00
2023-07-16T08:24:14.891Z,400.00
2023-07-16T08:25:14.973Z,400.00
2023-07-16T08:26:15.083Z,430.00
2023-07-16T08:27:15.024Z,465.00
2023-07-16T08:28:15.011Z,500.00
2023-07-16T08:29:15.076Z,500.00
2023-07-16T08:30:15.102Z,500.00
2023-07-16T08:31:15.189Z,500.00
2023-07-16T08:32:15.188Z,503.00
2023-07-16T08:33:15.196Z,500.00
2023-07-16T08:34:15.228Z,500.00
2023-07-16T08:35:15.260Z,500.00
2023-07-16T08:36:15.506Z,498.00
2023-07-16T08:37:15.299Z,501.00
2023-07-16T08:38:15.320Z,500.00
2023-07-16T08:39:15.355Z,503.00
2023-07-16T08:40:15.379Z,500.00
2023-07-16T08:41:15.422Z,500.00
2023-07-16T08:42:15.481Z,500.00
2023-07-16T08:43:15.496Z,503.00
2023-07-16T08:44:15.501Z,500.00
2023-07-16T08:45:15.508Z,503.00
2023-07-16T08:46:15.874Z,506.00
2023-07-16T08:47:15.587Z,500.00
2023-07-16T08:48:15.603Z,505.00
2023-07-16T08:49:15.606Z,504.00
2023-07-16T08:50:15.661Z,500.00
2023-07-16T08:51:15.665Z,506.00
2023-07-16T08:52:15.713Z,501.00
2023-07-16T08:53:15.733Z,500.00
2023-07-16T08:54:15.746Z,501.00
2023-07-16T08:55:15.785Z,502.00
2023-07-16T08:56:16.084Z,500.00
2023-07-16T08:57:15.823Z,504.00
2023-07-16T08:58:15.873Z,503.00
2023-07-16T08:59:15.903Z,508.00
2023-07-16T09:00:15.930Z,502.00
2023-07-16T09:01:15.954Z,500.00
2023-07-16T09:02:15.973Z,503.00
2023-07-16T09:03:16.003Z,501.00
2023-07-16T09:04:16.009Z,501.00
2023-07-16T09:05:28.160Z,500.00
2023-07-16T09:06:17.349Z,500.00
2023-07-16T09:07:16.029Z,500.00
2023-07-16T09:08:16.036Z,500.00
2023-07-16T09:09:16.017Z,495.00
2023-07-16T09:10:15.997Z,492.00
2023-07-16T09:11:16.006Z,501.00
2023-07-16T09:12:16.003Z,502.00
2023-07-16T09:13:16.005Z,502.00
2023-07-16T09:14:15.980Z,504.00
2023-07-16T09:15:15.977Z,505.00
2023-07-16T09:16:16.216Z,501.00
2023-07-16T09:17:15.988Z,500.00
2023-07-16T09:18:17.311Z,501.00
2023-07-16T09:19:15.972Z,510.00
2023-07-16T09:20:15.934Z,503.00
2023-07-16T09:21:15.909Z,502.00
2023-07-16T09:22:15.924Z,502.00
2023-07-16T09:23:15.916Z,501.00
2023-07-16T09:24:17.431Z,504.00
2023-07-16T09:25:15.901Z,504.00
2023-07-16T09:26:16.150Z,503.00
2023-07-16T09:27:15.902Z,501.00
2023-07-16T09:28:15.899Z,499.00
2023-07-16T09:29:15.847Z,495.00
2023-07-16T09:30:15.890Z,503.00
2023-07-16T09:31:15.864Z,500.00
2023-07-16T09:32:16.125Z,506.00
2023-07-16T09:33:15.832Z,503.00
2023-07-16T09:34:15.833Z,505.00
2023-07-16T09:35:15.838Z,504.00
2023-07-16T09:36:17.883Z,507.00
2023-07-16T09:37:15.810Z,507.00
2023-07-16T09:38:15.813Z,507.00
2023-07-16T09:39:15.802Z,503.00
2023-07-16T09:40:15.811Z,502.00
2023-07-16T09:41:15.790Z,498.00
2023-07-16T09:42:17.567Z,505.00
2023-07-16T09:43:15.786Z,505.00
2023-07-16T09:44:15.753Z,505.00
2023-07-16T09:45:15.773Z,504.00
2023-07-16T09:46:16.113Z,502.00
2023-07-16T09:47:15.736Z,500.00
2023-07-16T09:48:15.771Z,505.00
2023-07-16T09:49:15.751Z,502.00
2023-07-16T09:50:15.740Z,500.00
2023-07-16T09:51:15.701Z,507.00
2023-07-16T09:52:15.701Z,504.00
2023-07-16T09:53:15.699Z,504.00
2023-07-16T09:54:15.695Z,501.00
2023-07-16T09:55:15.686Z,503.00
2023-07-16T09:56:15.843Z,508.00
2023-07-16T09:57:15.659Z,504.00
2023-07-16T09:58:15.669Z,501.00
2023-07-16T09:59:15.633Z,504.00
2023-07-16T10:00:15.649Z,503.00
2023-07-16T10:01:15.799Z,502.00
2023-07-16T10:02:15.826Z,505.00
2023-07-16T10:03:15.727Z,504.00
2023-07-16T10:04:16.303Z,503.00
2023-07-16T10:05:15.849Z,507.00
2023-07-16T10:06:16.091Z,506.00
2023-07-16T10:07:15.877Z,500.00
2023-07-16T10:08:15.896Z,501.00
2023-07-16T10:09:15.938Z,503.00
2023-07-16T10:10:15.941Z,502.00
2023-07-16T10:11:15.982Z,503.00
2023-07-16T10:12:16.122Z,503.00
2023-07-16T10:13:15.988Z,502.00
2023-07-16T10:14:16.037Z,504.00
2023-07-16T10:15:16.059Z,505.00
2023-07-16T10:16:16.321Z,507.00
2023-07-16T10:17:16.084Z,507.00
2023-07-16T10:18:16.153Z,509.00
2023-07-16T10:19:16.108Z,507.00
2023-07-16T10:20:16.139Z,509.00
2023-07-16T10:21:16.169Z,504.00
2023-07-16T10:22:16.196Z,506.00
2023-07-16T10:23:16.224Z,506.00
2023-07-16T10:24:16.181Z,508.00
2023-07-16T10:25:16.209Z,503.00
2023-07-16T10:26:19.905Z,504.00
2023-07-16T10:27:16.218Z,504.00
2023-07-16T10:28:16.218Z,505.00
2023-07-16T10:29:16.216Z,505.00
2023-07-16T10:30:16.203Z,505.00
2023-07-16T10:31:16.210Z,506.00
2023-07-16T10:32:17.235Z,505.00
2023-07-16T10:33:16.195Z,507.00
2023-07-16T10:34:16.168Z,506.00
2023-07-16T10:35:16.191Z,501.00
2023-07-16T10:36:16.392Z,500.00
2023-07-16T10:37:16.180Z,506.00
2023-07-16T10:38:17.797Z,507.00
2023-07-16T10:39:16.153Z,505.00
2023-07-16T10:40:16.149Z,507.00
2023-07-16T10:41:16.124Z,505.00
2023-07-16T10:42:16.131Z,506.00
2023-07-16T10:43:16.100Z,505.00
2023-07-16T10:44:16.111Z,505.00
2023-07-16T10:45:16.103Z,504.00
2023-07-16T10:46:16.397Z,504.00
2023-07-16T10:47:16.090Z,505.00
2023-07-16T10:48:16.074Z,506.00
2023-07-16T10:49:16.070Z,506.00
2023-07-16T10:50:17.366Z,504.00
2023-07-16T10:51:16.049Z,502.00
2023-07-16T10:52:16.052Z,505.00
2023-07-16T10:53:16.037Z,503.00
2023-07-16T10:54:16.024Z,507.00
2023-07-16T10:55:16.059Z,508.00
2023-07-16T10:56:16.276Z,507.00
2023-07-16T10:57:16.025Z,504.00
2023-07-16T10:58:15.996Z,509.00
2023-07-16T10:59:15.990Z,505.00
2023-07-16T11:00:16.008Z,506.00
2023-07-16T11:01:16.069Z,507.00
2023-07-16T11:02:16.002Z,506.00
2023-07-16T11:03:16.072Z,502.00
2023-07-16T11:04:15.957Z,508.00
2023-07-16T11:05:15.987Z,502.00
2023-07-16T11:06:16.193Z,503.00
2023-07-16T11:07:16.008Z,505.00
2023-07-16T11:08:16.017Z,507.00
2023-07-16T11:09:16.042Z,505.00
2023-07-16T11:10:16.044Z,506.00
2023-07-16T11:11:16.069Z,505.00
2023-07-16T11:12:16.060Z,507.00
2023-07-16T11:13:16.101Z,508.00
2023-07-16T11:14:16.134Z,505.00
2023-07-16T11:15:16.131Z,501.00
2023-07-16T11:16:16.300Z,506.00
2023-07-16T11:17:16.183Z,502.00
2023-07-16T11:18:16.148Z,511.00
2023-07-16T11:19:16.181Z,507.00
2023-07-16T11:20:16.262Z,507.00
2023-07-16T11:21:16.197Z,508.00
2023-07-16T11:22:16.270Z,505.00
2023-07-16T11:23:16.253Z,506.00
2023-07-16T11:24:16.294Z,505.00
2023-07-16T11:25:16.315Z,509.00
2023-07-16T11:26:16.564Z,503.00
2023-07-16T11:27:16.339Z,506.00
2023-07-16T11:28:16.345Z,505.00
2023-07-16T11:29:16.353Z,504.00
2023-07-16T11:30:16.453Z,506.00
2023-07-16T11:31:16.461Z,501.00
2023-07-16T11:32:16.382Z,504.00
2023-07-16T11:33:16.521Z,510.00
2023-07-16T11:34:16.396Z,503.00
2023-07-16T11:35:16.449Z,505.00
2023-07-16T11:36:16.710Z,509.00
2023-07-16T11:37:16.438Z,505.00
2023-07-16T11:38:16.463Z,505.00
2023-07-16T11:39:16.482Z,505.00
2023-07-16T11:40:16.543Z,508.00
2023-07-16T11:41:16.483Z,503.00
2023-07-16T11:42:16.492Z,511.00
2023-07-16T11:43:16.528Z,506.00
2023-07-16T11:44:16.541Z,505.00
2023-07-16T11:45:16.564Z,503.00
2023-07-16T11:46:16.775Z,506.00
2023-07-16T11:47:16.662Z,510.00
2023-07-16T11:48:16.617Z,510.00
2023-07-16T11:49:16.596Z,504.00
2023-07-16T11:50:16.721Z,507.00
2023-07-16T11:51:16.638Z,505.00
2023-07-16T11:52:16.643Z,500.00
2023-07-16T11:53:16.649Z,501.00
2023-07-16T11:54:16.655Z,506.00
2023-07-16T11:55:16.668Z,504.00
2023-07-16T11:56:16.870Z,507.00
2023-07-16T11:57:16.735Z,512.00
2023-07-16T11:58:16.712Z,509.00
2023-07-16T11:59:16.700Z,506.00
2023-07-16T12:00:16.787Z,507.00
2023-07-16T12:01:16.783Z,505.00
2023-07-16T12:02:16.730Z,504.00
2023-07-16T12:03:16.845Z,508.00
2023-07-16T12:04:16.785Z,511.00
2023-07-16T12:05:16.783Z,508.00
2023-07-16T12:06:17.094Z,510.00
2023-07-16T12:07:16.780Z,507.00
2023-07-16T12:08:16.823Z,508.00
2023-07-16T12:09:16.796Z,509.00
2023-07-16T12:10:16.786Z,509.00
2023-07-16T12:11:16.846Z,509.00
2023-07-16T12:12:16.842Z,504.00
2023-07-16T12:13:16.833Z,508.00
2023-07-16T12:14:16.846Z,508.00
2023-07-16T12:15:16.839Z,505.00
2023-07-16T12:16:17.011Z,507.00
2023-07-16T12:17:16.931Z,501.00
2023-07-16T12:18:16.945Z,508.00
2023-07-16T12:19:16.850Z,503.00
2023-07-16T12:20:16.867Z,504.00
2023-07-16T12:21:16.883Z,504.00
2023-07-16T12:22:16.886Z,504.00
2023-07-16T12:23:16.937Z,504.00
2023-07-16T12:24:16.921Z,507.00
2023-07-16T12:25:16.913Z,500.00
2023-07-16T12:26:17.153Z,506.00
2023-07-16T12:27:16.964Z,501.00
2023-07-16T12:28:16.952Z,506.00
2023-07-16T12:29:16.969Z,505.00
2023-07-16T12:30:16.999Z,508.00
2023-07-16T12:31:17.053Z,503.00
2023-07-16T12:32:17.016Z,507.00
2023-07-16T12:33:16.978Z,510.00
2023-07-16T12:34:17.013Z,508.00
2023-07-16T12:35:17.020Z,510.00
2023-07-16T12:36:17.420Z,509.00
2023-07-16T12:37:17.047Z,510.00
2023-07-16T12:38:17.076Z,505.00
2023-07-16T12:39:17.060Z,508.00
2023-07-16T12:40:17.056Z,509.00
2023-07-16T12:41:17.063Z,504.00
2023-07-16T12:42:17.063Z,507.00
2023-07-16T12:43:17.113Z,506.00
2023-07-16T12:44:17.119Z,506.00
2023-07-16T12:45:17.124Z,506.00
2023-07-16T12:46:17.397Z,509.00
2023-07-16T12:47:17.156Z,506.00
2023-07-16T12:48:17.198Z,504.00
2023-07-16T12:49:17.183Z,504.00
2023-07-16T12:50:17.199Z,506.00
2023-07-16T12:51:17.212Z,506.00
2023-07-16T12:52:17.192Z,506.00
2023-07-16T12:53:17.211Z,505.00
2023-07-16T12:54:17.280Z,507.00
2023-07-16T12:55:17.281Z,504.00
2023-07-16T12:56:17.562Z,503.00
2023-07-16T12:57:17.321Z,510.00
2023-07-16T12:58:17.367Z,504.00
2023-07-16T12:59:17.412Z,503.00
2023-07-16T13:00:17.437Z,504.00
